sensor_id;sensor_type;location;lat;lon;timestamp;P1;durP1;ratioP1;P2;durP2;ratioP2
70426;SDS011;57872;55.432;37.248;2023-02-28T00:01:57;11.47;;;4.83;;
70426;SDS011;57872;55.432;37.248;2023-02-28T00:06:58;9.67;;;4.90;;
70426;SDS011;57872;55.432;37.248;2023-02-28T00:11:59;11.93;;;4.23;;
70426;SDS011;57872;55.432;37.248;2023-02-28T00:17:00;10.80;;;5.23;;
70426;SDS011;57872;55.432;37.248;2023-02-28T00:22:01;11.53;;;4.80;;
70426;SDS011;57872;55.432;37.248;2023-02-28T00:27:01;12.27;;;4.67;;
70426;SDS011;57872;55.432;37.248;2023-02-28T00:32:02;13.37;;;4.60;;
70426;SDS011;57872;55.432;37.248;2023-02-28T00:37:08;9.83;;;4.20;;
70426;SDS011;57872;55.432;37.248;2023-02-28T00:42:09;13.53;;;4.87;;
70426;SDS011;57872;55.432;37.248;2023-02-28T00:47:10;10.57;;;4.80;;
70426;SDS011;57872;55.432;37.248;2023-02-28T00:52:11;9.27;;;4.03;;
70426;SDS011;57872;55.432;37.248;2023-02-28T00:57:11;7.23;;;3.20;;
70426;SDS011;57872;55.432;37.248;2023-02-28T01:02:13;11.57;;;4.70;;
70426;SDS011;57872;55.432;37.248;2023-02-28T01:07:14;9.40;;;4.10;;
70426;SDS011;57872;55.432;37.248;2023-02-28T01:12:15;10.63;;;4.13;;
70426;SDS011;57872;55.432;37.248;2023-02-28T01:17:16;8.50;;;4.40;;
70426;SDS011;57872;55.432;37.248;2023-02-28T01:22:17;9.57;;;3.40;;
70426;SDS011;57872;55.432;37.248;2023-02-28T01:27:19;9.70;;;4.07;;
70426;SDS011;57872;55.432;37.248;2023-02-28T01:32:20;10.43;;;3.97;;
70426;SDS011;57872;55.432;37.248;2023-02-28T01:37:21;9.97;;;4.07;;
70426;SDS011;57872;55.432;37.248;2023-02-28T01:42:22;10.93;;;4.83;;
70426;SDS011;57872;55.432;37.248;2023-02-28T01:47:23;6.13;;;2.40;;
70426;SDS011;57872;55.432;37.248;2023-02-28T01:52:24;8.00;;;3.93;;
70426;SDS011;57872;55.432;37.248;2023-02-28T01:57:32;11.77;;;4.47;;
70426;SDS011;57872;55.432;37.248;2023-02-28T02:02:38;25.07;;;10.37;;
70426;SDS011;57872;55.432;37.248;2023-02-28T02:07:41;10.80;;;3.87;;
70426;SDS011;57872;55.432;37.248;2023-02-28T02:44:55;9.87;;;3.63;;
70426;SDS011;57872;55.432;37.248;2023-02-28T02:50:08;9.20;;;4.00;;
70426;SDS011;57872;55.432;37.248;2023-02-28T02:55:13;11.93;;;4.60;;
70426;SDS011;57872;55.432;37.248;2023-02-28T03:00:17;11.73;;;5.00;;
70426;SDS011;57872;55.432;37.248;2023-02-28T03:05:26;11.43;;;4.37;;
70426;SDS011;57872;55.432;37.248;2023-02-28T03:10:42;9.40;;;4.40;;
70426;SDS011;57872;55.432;37.248;2023-02-28T03:16:01;14.33;;;4.80;;
70426;SDS011;57872;55.432;37.248;2023-02-28T03:21:38;10.37;;;4.53;;
70426;SDS011;57872;55.432;37.248;2023-02-28T03:26:50;10.47;;;4.53;;
70426;SDS011;57872;55.432;37.248;2023-02-28T03:31:54;11.77;;;4.73;;
70426;SDS011;57872;55.432;37.248;2023-02-28T03:37:09;10.83;;;4.37;;
70426;SDS011;57872;55.432;37.248;2023-02-28T03:42:18;9.47;;;3.23;;
70426;SDS011;57872;55.432;37.248;2023-02-28T03:47:31;12.67;;;4.50;;
70426;SDS011;57872;55.432;37.248;2023-02-28T03:52:37;9.83;;;3.60;;
70426;SDS011;57872;55.432;37.248;2023-02-28T04:03:19;8.77;;;3.53;;
70426;SDS011;57872;55.432;37.248;2023-02-28T04:08:45;10.87;;;3.53;;
70426;SDS011;57872;55.432;37.248;2023-02-28T04:13:47;11.40;;;3.70;;
70426;SDS011;57872;55.432;37.248;2023-02-28T04:18:50;8.73;;;3.50;;
70426;SDS011;57872;55.432;37.248;2023-02-28T04:23:51;9.83;;;3.80;;
70426;SDS011;57872;55.432;37.248;2023-02-28T04:28:52;8.30;;;3.30;;
70426;SDS011;57872;55.432;37.248;2023-02-28T04:33:53;8.83;;;3.20;;
70426;SDS011;57872;55.432;37.248;2023-02-28T04:38:54;13.87;;;4.87;;
70426;SDS011;57872;55.432;37.248;2023-02-28T04:44:00;9.67;;;3.60;;
70426;SDS011;57872;55.432;37.248;2023-02-28T04:49:01;11.53;;;4.63;;
70426;SDS011;57872;55.432;37.248;2023-02-28T04:54:03;14.27;;;3.90;;
70426;SDS011;57872;55.432;37.248;2023-02-28T04:59:04;10.97;;;3.90;;
70426;SDS011;57872;55.432;37.248;2023-02-28T05:04:05;10.57;;;3.67;;
70426;SDS011;57872;55.432;37.248;2023-02-28T05:09:07;10.63;;;4.50;;
70426;SDS011;57872;55.432;37.248;2023-02-28T05:14:12;9.03;;;3.80;;
70426;SDS011;57872;55.432;37.248;2023-02-28T05:19:14;9.00;;;3.80;;
70426;SDS011;57872;55.432;37.248;2023-02-28T05:24:20;8.27;;;3.23;;
70426;SDS011;57872;55.432;37.248;2023-02-28T05:29:24;7.83;;;3.80;;
70426;SDS011;57872;55.432;37.248;2023-02-28T05:34:25;10.10;;;3.70;;
70426;SDS011;57872;55.432;37.248;2023-02-28T05:39:26;9.13;;;3.43;;
70426;SDS011;57872;55.432;37.248;2023-02-28T05:44:27;8.33;;;3.47;;
70426;SDS011;57872;55.432;37.248;2023-02-28T05:54:53;7.03;;;2.77;;
70426;SDS011;57872;55.432;37.248;2023-02-28T05:59:54;6.83;;;3.37;;
70426;SDS011;57872;55.432;37.248;2023-02-28T06:04:54;8.27;;;2.67;;
70426;SDS011;57872;55.432;37.248;2023-02-28T06:09:55;6.83;;;3.00;;
70426;SDS011;57872;55.432;37.248;2023-02-28T06:14:56;8.27;;;3.27;;
70426;SDS011;57872;55.432;37.248;2023-02-28T06:19:57;9.37;;;3.43;;
70426;SDS011;57872;55.432;37.248;2023-02-28T06:24:58;6.70;;;3.30;;
70426;SDS011;57872;55.432;37.248;2023-02-28T06:29:59;8.73;;;3.47;;
70426;SDS011;57872;55.432;37.248;2023-02-28T06:35:00;11.07;;;4.17;;
70426;SDS011;57872;55.432;37.248;2023-02-28T06:40:01;6.50;;;2.87;;
70426;SDS011;57872;55.432;37.248;2023-02-28T06:45:03;10.97;;;3.03;;
70426;SDS011;57872;55.432;37.248;2023-02-28T06:50:10;7.37;;;3.20;;
70426;SDS011;57872;55.432;37.248;2023-02-28T06:55:12;6.57;;;2.47;;
70426;SDS011;57872;55.432;37.248;2023-02-28T07:00:19;9.33;;;3.13;;
70426;SDS011;57872;55.432;37.248;2023-02-28T07:05:22;6.00;;;2.60;;
70426;SDS011;57872;55.432;37.248;2023-02-28T07:10:26;7.07;;;3.20;;
70426;SDS011;57872;55.432;37.248;2023-02-28T07:15:26;7.47;;;2.80;;
70426;SDS011;57872;55.432;37.248;2023-02-28T07:20:27;6.43;;;3.27;;
70426;SDS011;57872;55.432;37.248;2023-02-28T07:25:28;9.07;;;3.83;;
70426;SDS011;57872;55.432;37.248;2023-02-28T07:30:32;11.23;;;4.47;;
70426;SDS011;57872;55.432;37.248;2023-02-28T07:35:46;7.73;;;2.67;;
70426;SDS011;57872;55.432;37.248;2023-02-28T07:40:47;8.20;;;3.13;;
70426;SDS011;57872;55.432;37.248;2023-02-28T07:45:48;10.57;;;4.17;;
70426;SDS011;57872;55.432;37.248;2023-02-28T07:50:59;7.37;;;3.47;;
70426;SDS011;57872;55.432;37.248;2023-02-28T07:56:01;11.10;;;4.60;;
70426;SDS011;57872;55.432;37.248;2023-02-28T08:01:09;11.20;;;3.93;;
70426;SDS011;57872;55.432;37.248;2023-02-28T08:06:18;12.93;;;3.70;;
70426;SDS011;57872;55.432;37.248;2023-02-28T08:11:20;7.50;;;3.50;;
70426;SDS011;57872;55.432;37.248;2023-02-28T08:16:21;10.80;;;4.10;;
70426;SDS011;57872;55.432;37.248;2023-02-28T08:21:22;10.43;;;4.10;;
70426;SDS011;57872;55.432;37.248;2023-02-28T08:26:23;6.70;;;3.10;;
70426;SDS011;57872;55.432;37.248;2023-02-28T08:31:26;8.27;;;3.03;;
70426;SDS011;57872;55.432;37.248;2023-02-28T08:41:29;13.30;;;3.80;;
70426;SDS011;57872;55.432;37.248;2023-02-28T08:46:30;9.47;;;3.47;;
70426;SDS011;57872;55.432;37.248;2023-02-28T08:51:31;8.83;;;2.97;;
70426;SDS011;57872;55.432;37.248;2023-02-28T08:56:35;7.07;;;3.10;;
70426;SDS011;57872;55.432;37.248;2023-02-28T09:01:40;7.97;;;3.30;;
70426;SDS011;57872;55.432;37.248;2023-02-28T09:06:44;7.10;;;3.03;;
70426;SDS011;57872;55.432;37.248;2023-02-28T09:11:49;8.90;;;3.13;;
70426;SDS011;57872;55.432;37.248;2023-02-28T09:16:50;6.20;;;2.77;;
70426;SDS011;57872;55.432;37.248;2023-02-28T09:21:51;6.87;;;3.00;;
70426;SDS011;57872;55.432;37.248;2023-02-28T09:26:52;8.80;;;3.90;;
70426;SDS011;57872;55.432;37.248;2023-02-28T09:32:08;9.80;;;2.83;;
70426;SDS011;57872;55.432;37.248;2023-02-28T09:37:58;6.63;;;2.70;;
70426;SDS011;57872;55.432;37.248;2023-02-28T09:43:42;7.60;;;2.60;;
70426;SDS011;57872;55.432;37.248;2023-02-28T09:48:56;7.60;;;3.30;;
70426;SDS011;57872;55.432;37.248;2023-02-28T09:53:57;9.55;;;3.15;;
70426;SDS011;57872;55.432;37.248;2023-02-28T09:59:02;6.23;;;2.70;;
70426;SDS011;57872;55.432;37.248;2023-02-28T10:10:15;6.43;;;2.70;;
70426;SDS011;57872;55.432;37.248;2023-02-28T10:15:31;7.27;;;2.83;;
70426;SDS011;57872;55.432;37.248;2023-02-28T10:20:33;8.40;;;3.47;;
70426;SDS011;57872;55.432;37.248;2023-02-28T10:25:36;6.03;;;2.40;;
70426;SDS011;57872;55.432;37.248;2023-02-28T10:30:38;8.07;;;2.83;;
70426;SDS011;57872;55.432;37.248;2023-02-28T10:35:41;8.60;;;3.47;;
70426;SDS011;57872;55.432;37.248;2023-02-28T10:40:44;7.17;;;2.97;;
70426;SDS011;57872;55.432;37.248;2023-02-28T10:46:19;7.27;;;3.50;;
70426;SDS011;57872;55.432;37.248;2023-02-28T10:51:58;7.77;;;3.30;;
70426;SDS011;57872;55.432;37.248;2023-02-28T10:57:56;6.70;;;3.13;;
70426;SDS011;57872;55.432;37.248;2023-02-28T11:02:59;6.28;;;2.15;;
70426;SDS011;57872;55.432;37.248;2023-02-28T11:08:14;6.17;;;2.20;;
70426;SDS011;57872;55.432;37.248;2023-02-28T11:13:25;7.80;;;3.20;;
70426;SDS011;57872;55.432;37.248;2023-02-28T11:18:55;9.17;;;3.80;;
70426;SDS011;57872;55.432;37.248;2023-02-28T11:35:02;7.93;;;3.60;;
70426;SDS011;57872;55.432;37.248;2023-02-28T11:40:15;7.43;;;3.17;;
70426;SDS011;57872;55.432;37.248;2023-02-28T11:45:22;8.23;;;3.47;;
70426;SDS011;57872;55.432;37.248;2023-02-28T12:01:21;5.93;;;3.03;;
70426;SDS011;57872;55.432;37.248;2023-02-28T12:06:51;8.60;;;3.90;;
70426;SDS011;57872;55.432;37.248;2023-02-28T12:27:43;6.50;;;3.13;;
70426;SDS011;57872;55.432;37.248;2023-02-28T12:32:46;11.67;;;4.07;;
70426;SDS011;57872;55.432;37.248;2023-02-28T12:38:05;7.23;;;3.37;;
70426;SDS011;57872;55.432;37.248;2023-02-28T12:43:18;8.77;;;3.83;;
70426;SDS011;57872;55.432;37.248;2023-02-28T12:48:21;9.17;;;3.93;;
70426;SDS011;57872;55.432;37.248;2023-02-28T12:53:37;7.23;;;3.40;;
70426;SDS011;57872;55.432;37.248;2023-02-28T12:58:48;8.30;;;3.50;;
70426;SDS011;57872;55.432;37.248;2023-02-28T13:09:59;5.60;;;2.30;;
70426;SDS011;57872;55.432;37.248;2023-02-28T13:15:08;6.50;;;2.97;;
70426;SDS011;57872;55.432;37.248;2023-02-28T13:20:23;8.87;;;3.43;;
70426;SDS011;57872;55.432;37.248;2023-02-28T13:36:08;6.50;;;2.87;;
70426;SDS011;57872;55.432;37.248;2023-02-28T13:52:14;8.83;;;3.33;;
70426;SDS011;57872;55.432;37.248;2023-02-28T13:57:25;6.30;;;2.80;;
70426;SDS011;57872;55.432;37.248;2023-02-28T14:08:17;6.60;;;2.70;;
70426;SDS011;57872;55.432;37.248;2023-02-28T14:24:24;6.83;;;2.70;;
70426;SDS011;57872;55.432;37.248;2023-02-28T14:35:40;7.17;;;3.00;;
70426;SDS011;57872;55.432;37.248;2023-02-28T14:41:01;8.47;;;3.20;;
70426;SDS011;57872;55.432;37.248;2023-02-28T14:46:12;6.83;;;2.97;;
70426;SDS011;57872;55.432;37.248;2023-02-28T14:51:21;5.83;;;2.23;;
70426;SDS011;57872;55.432;37.248;2023-02-28T14:56:41;9.90;;;3.40;;
70426;SDS011;57872;55.432;37.248;2023-02-28T15:01:54;5.03;;;2.03;;
70426;SDS011;57872;55.432;37.248;2023-02-28T15:07:21;6.33;;;2.47;;
70426;SDS011;57872;55.432;37.248;2023-02-28T15:12:52;5.30;;;2.30;;
70426;SDS011;57872;55.432;37.248;2023-02-28T15:18:00;7.77;;;2.97;;
70426;SDS011;57872;55.432;37.248;2023-02-28T15:23:03;7.07;;;2.43;;
70426;SDS011;57872;55.432;37.248;2023-02-28T15:28:04;9.13;;;3.10;;
70426;SDS011;57872;55.432;37.248;2023-02-28T15:33:26;5.57;;;2.07;;
70426;SDS011;57872;55.432;37.248;2023-02-28T15:38:34;5.70;;;2.30;;
70426;SDS011;57872;55.432;37.248;2023-02-28T15:43:42;8.33;;;3.07;;
70426;SDS011;57872;55.432;37.248;2023-02-28T15:48:51;6.00;;;2.57;;
70426;SDS011;57872;55.432;37.248;2023-02-28T15:53:58;6.47;;;2.50;;
70426;SDS011;57872;55.432;37.248;2023-02-28T15:59:02;7.30;;;2.87;;
70426;SDS011;57872;55.432;37.248;2023-02-28T16:04:05;9.20;;;3.47;;
70426;SDS011;57872;55.432;37.248;2023-02-28T16:09:13;7.17;;;3.27;;
70426;SDS011;57872;55.432;37.248;2023-02-28T16:14:19;6.27;;;2.80;;
70426;SDS011;57872;55.432;37.248;2023-02-28T16:19:23;8.93;;;3.57;;
70426;SDS011;57872;55.432;37.248;2023-02-28T16:24:24;6.97;;;2.73;;
70426;SDS011;57872;55.432;37.248;2023-02-28T16:29:34;5.97;;;2.47;;
70426;SDS011;57872;55.432;37.248;2023-02-28T16:34:36;11.30;;;3.23;;
70426;SDS011;57872;55.432;37.248;2023-02-28T16:39:36;7.73;;;2.57;;
70426;SDS011;57872;55.432;37.248;2023-02-28T16:44:39;9.93;;;2.90;;
70426;SDS011;57872;55.432;37.248;2023-02-28T16:49:43;4.28;;;1.80;;
70426;SDS011;57872;55.432;37.248;2023-02-28T16:54:44;7.13;;;2.70;;
70426;SDS011;57872;55.432;37.248;2023-02-28T16:59:45;6.90;;;2.57;;
70426;SDS011;57872;55.432;37.248;2023-02-28T17:04:45;6.77;;;2.70;;
70426;SDS011;57872;55.432;37.248;2023-02-28T17:09:47;6.13;;;2.30;;
70426;SDS011;57872;55.432;37.248;2023-02-28T17:14:50;6.03;;;2.65;;
70426;SDS011;57872;55.432;37.248;2023-02-28T17:19:50;7.50;;;2.23;;
70426;SDS011;57872;55.432;37.248;2023-02-28T17:24:51;5.73;;;2.43;;
70426;SDS011;57872;55.432;37.248;2023-02-28T17:34:56;4.60;;;1.80;;
70426;SDS011;57872;55.432;37.248;2023-02-28T17:39:57;5.23;;;2.00;;
70426;SDS011;57872;55.432;37.248;2023-02-28T17:44:57;5.70;;;2.10;;
70426;SDS011;57872;55.432;37.248;2023-02-28T17:49:58;4.63;;;1.77;;
70426;SDS011;57872;55.432;37.248;2023-02-28T17:54:59;4.90;;;1.77;;
70426;SDS011;57872;55.432;37.248;2023-02-28T18:00:00;7.43;;;2.50;;
70426;SDS011;57872;55.432;37.248;2023-02-28T18:05:11;5.97;;;2.30;;
70426;SDS011;57872;55.432;37.248;2023-02-28T18:10:17;5.33;;;1.73;;
70426;SDS011;57872;55.432;37.248;2023-02-28T18:15:20;3.55;;;1.60;;
70426;SDS011;57872;55.432;37.248;2023-02-28T18:20:28;4.97;;;1.90;;
70426;SDS011;57872;55.432;37.248;2023-02-28T18:25:28;6.90;;;1.67;;
70426;SDS011;57872;55.432;37.248;2023-02-28T18:30:31;4.33;;;1.20;;
70426;SDS011;57872;55.432;37.248;2023-02-28T18:35:33;4.75;;;1.50;;
70426;SDS011;57872;55.432;37.248;2023-02-28T18:40:34;3.80;;;1.67;;
70426;SDS011;57872;55.432;37.248;2023-02-28T18:45:41;4.23;;;1.57;;
70426;SDS011;57872;55.432;37.248;2023-02-28T18:50:42;4.50;;;1.50;;
70426;SDS011;57872;55.432;37.248;2023-02-28T18:55:43;3.00;;;1.30;;
70426;SDS011;57872;55.432;37.248;2023-02-28T19:00:47;4.37;;;1.63;;
70426;SDS011;57872;55.432;37.248;2023-02-28T19:05:58;5.23;;;2.10;;
70426;SDS011;57872;55.432;37.248;2023-02-28T19:11:04;5.50;;;2.10;;
70426;SDS011;57872;55.432;37.248;2023-02-28T19:16:10;6.53;;;2.63;;
70426;SDS011;57872;55.432;37.248;2023-02-28T19:21:12;6.17;;;2.60;;
70426;SDS011;57872;55.432;37.248;2023-02-28T19:26:18;4.80;;;1.90;;
70426;SDS011;57872;55.432;37.248;2023-02-28T19:31:22;4.20;;;1.48;;
70426;SDS011;57872;55.432;37.248;2023-02-28T19:36:24;6.85;;;1.70;;
70426;SDS011;57872;55.432;37.248;2023-02-28T19:41:25;7.90;;;1.90;;
70426;SDS011;57872;55.432;37.248;2023-02-28T19:46:26;9.60;;;2.50;;
70426;SDS011;57872;55.432;37.248;2023-02-28T19:51:28;11.37;;;3.40;;
70426;SDS011;57872;55.432;37.248;2023-02-28T19:56:28;8.80;;;2.97;;
70426;SDS011;57872;55.432;37.248;2023-02-28T20:01:29;7.80;;;2.23;;
70426;SDS011;57872;55.432;37.248;2023-02-28T20:06:33;2.33;;;1.00;;
70426;SDS011;57872;55.432;37.248;2023-02-28T20:11:37;3.67;;;1.30;;
70426;SDS011;57872;55.432;37.248;2023-02-28T20:16:40;4.90;;;1.40;;
70426;SDS011;57872;55.432;37.248;2023-02-28T20:21:41;2.73;;;1.20;;
70426;SDS011;57872;55.432;37.248;2023-02-28T20:26:43;3.70;;;1.33;;
70426;SDS011;57872;55.432;37.248;2023-02-28T20:31:50;2.87;;;1.23;;
70426;SDS011;57872;55.432;37.248;2023-02-28T20:36:52;4.97;;;1.30;;
70426;SDS011;57872;55.432;37.248;2023-02-28T20:41:53;3.10;;;1.20;;
70426;SDS011;57872;55.432;37.248;2023-02-28T20:46:54;3.93;;;1.40;;
70426;SDS011;57872;55.432;37.248;2023-02-28T20:51:55;3.10;;;1.20;;
70426;SDS011;57872;55.432;37.248;2023-02-28T20:56:56;6.93;;;1.30;;
70426;SDS011;57872;55.432;37.248;2023-02-28T21:02:03;7.07;;;1.37;;
70426;SDS011;57872;55.432;37.248;2023-02-28T21:07:04;3.43;;;1.47;;
70426;SDS011;57872;55.432;37.248;2023-02-28T21:12:05;6.80;;;1.57;;
70426;SDS011;57872;55.432;37.248;2023-02-28T21:23:08;2.73;;;1.10;;
70426;SDS011;57872;55.432;37.248;2023-02-28T21:28:13;5.80;;;1.73;;
70426;SDS011;57872;55.432;37.248;2023-02-28T21:33:18;4.83;;;1.50;;
70426;SDS011;57872;55.432;37.248;2023-02-28T21:45:03;3.67;;;1.03;;
70426;SDS011;57872;55.432;37.248;2023-02-28T21:56:12;4.53;;;1.37;;
70426;SDS011;57872;55.432;37.248;2023-02-28T22:12:02;3.27;;;1.13;;
70426;SDS011;57872;55.432;37.248;2023-02-28T22:23:04;2.60;;;1.13;;
70426;SDS011;57872;55.432;37.248;2023-02-28T22:28:19;3.90;;;1.05;;
70426;SDS011;57872;55.432;37.248;2023-02-28T22:34:06;3.30;;;1.20;;
70426;SDS011;57872;55.432;37.248;2023-02-28T22:39:08;5.47;;;1.30;;
70426;SDS011;57872;55.432;37.248;2023-02-28T22:44:10;3.53;;;1.10;;
70426;SDS011;57872;55.432;37.248;2023-02-28T22:49:14;6.17;;;1.50;;
70426;SDS011;57872;55.432;37.248;2023-02-28T22:54:15;4.53;;;1.00;;
70426;SDS011;57872;55.432;37.248;2023-02-28T22:59:17;5.33;;;1.40;;
70426;SDS011;57872;55.432;37.248;2023-02-28T23:04:18;1.90;;;0.83;;
70426;SDS011;57872;55.432;37.248;2023-02-28T23:09:26;2.73;;;1.23;;
70426;SDS011;57872;55.432;37.248;2023-02-28T23:14:27;5.97;;;1.30;;
70426;SDS011;57872;55.432;37.248;2023-02-28T23:19:29;4.17;;;1.30;;
70426;SDS011;57872;55.432;37.248;2023-02-28T23:24:31;3.63;;;1.47;;
70426;SDS011;57872;55.432;37.248;2023-02-28T23:29:33;3.27;;;1.27;;
70426;SDS011;57872;55.432;37.248;2023-02-28T23:34:34;3.10;;;1.10;;
70426;SDS011;57872;55.432;37.248;2023-02-28T23:39:35;4.17;;;1.20;;
70426;SDS011;57872;55.432;37.248;2023-02-28T23:44:36;3.73;;;1.27;;
70426;SDS011;57872;55.432;37.248;2023-02-28T23:49:36;5.33;;;1.93;;
70426;SDS011;57872;55.432;37.248;2023-02-28T23:54:40;2.42;;;1.20;;
70426;SDS011;57872;55.432;37.248;2023-02-28T23:59:41;4.00;;;1.60;;
